sensor_id;sensor_type;location;lat;lon;timestamp;temperature;humidity
18868;DHT22;9563;49.240;9.088;2022-11-11T00:00:37;6.30;99.90
18868;DHT22;9563;49.240;9.088;2022-11-11T00:03:05;6.40;99.90
18868;DHT22;9563;49.240;9.088;2022-11-11T00:05:32;6.40;99.90
18868;DHT22;9563;49.240;9.088;2022-11-11T00:07:59;6.50;99.90
18868;DHT22;9563;49.240;9.088;2022-11-11T00:10:27;6.60;99.90
18868;DHT22;9563;49.240;9.088;2022-11-11T00:12:58;6.70;99.90
18868;DHT22;9563;49.240;9.088;2022-11-11T00:15:25;6.80;99.90
18868;DHT22;9563;49.240;9.088;2022-11-11T00:17:52;6.80;99.90
18868;DHT22;9563;49.240;9.088;2022-11-11T00:20:38;6.90;99.90
18868;DHT22;9563;49.240;9.088;2022-11-11T00:23:24;6.90;99.90
18868;DHT22;9563;49.240;9.088;2022-11-11T00:26:11;6.90;99.90
18868;DHT22;9563;49.240;9.088;2022-11-11T00:28:38;7.00;99.90
18868;DHT22;9563;49.240;9.088;2022-11-11T00:31:07;6.90;99.90
18868;DHT22;9563;49.240;9.088;2022-11-11T00:33:34;6.90;99.90
18868;DHT22;9563;49.240;9.088;2022-11-11T00:36:04;6.80;99.90
18868;DHT22;9563;49.240;9.088;2022-11-11T00:38:30;6.80;99.90
18868;DHT22;9563;49.240;9.088;2022-11-11T00:41:14;6.70;99.90
18868;DHT22;9563;49.240;9.088;2022-11-11T00:43:41;6.50;99.90
18868;DHT22;9563;49.240;9.088;2022-11-11T00:46:09;6.20;99.90
18868;DHT22;9563;49.240;9.088;2022-11-11T00:48:54;5.90;99.90
18868;DHT22;9563;49.240;9.088;2022-11-11T00:51:40;5.80;99.90
18868;DHT22;9563;49.240;9.088;2022-11-11T00:54:07;5.80;99.90
18868;DHT22;9563;49.240;9.088;2022-11-11T00:56:34;5.80;99.90
18868;DHT22;9563;49.240;9.088;2022-11-11T00:59:02;5.90;99.90
18868;DHT22;9563;49.240;9.088;2022-11-11T01:01:29;5.90;99.90
18868;DHT22;9563;49.240;9.088;2022-11-11T01:03:57;5.80;99.90
18868;DHT22;9563;49.240;9.088;2022-11-11T01:06:24;5.90;99.90
18868;DHT22;9563;49.240;9.088;2022-11-11T01:08:53;5.90;99.90
18868;DHT22;9563;49.240;9.088;2022-11-11T01:11:21;5.90;99.90
18868;DHT22;9563;49.240;9.088;2022-11-11T01:13:49;6.00;99.90
18868;DHT22;9563;49.240;9.088;2022-11-11T01:16:18;6.00;99.90
18868;DHT22;9563;49.240;9.088;2022-11-11T01:18:45;6.00;99.90
18868;DHT22;9563;49.240;9.088;2022-11-11T01:21:14;6.00;99.90
18868;DHT22;9563;49.240;9.088;2022-11-11T01:23:41;6.10;99.90
18868;DHT22;9563;49.240;9.088;2022-11-11T01:26:13;6.10;99.90
18868;DHT22;9563;49.240;9.088;2022-11-11T01:28:40;6.00;99.90
18868;DHT22;9563;49.240;9.088;2022-11-11T01:31:09;6.00;99.90
18868;DHT22;9563;49.240;9.088;2022-11-11T01:33:36;6.00;99.90
18868;DHT22;9563;49.240;9.088;2022-11-11T01:36:05;6.00;99.90
18868;DHT22;9563;49.240;9.088;2022-11-11T01:38:32;6.20;99.90
18868;DHT22;9563;49.240;9.088;2022-11-11T01:40:59;6.30;99.90
18868;DHT22;9563;49.240;9.088;2022-11-11T01:43:47;6.20;99.90
18868;DHT22;9563;49.240;9.088;2022-11-11T01:46:29;6.10;99.90
18868;DHT22;9563;49.240;9.088;2022-11-11T01:51:48;6.30;99.90
18868;DHT22;9563;49.240;9.088;2022-11-11T01:54:20;6.40;99.90
18868;DHT22;9563;49.240;9.088;2022-11-11T01:56:50;6.40;99.90
18868;DHT22;9563;49.240;9.088;2022-11-11T01:59:20;6.40;99.90
18868;DHT22;9563;49.240;9.088;2022-11-11T02:01:48;6.40;99.90
18868;DHT22;9563;49.240;9.088;2022-11-11T02:04:16;6.40;99.90
18868;DHT22;9563;49.240;9.088;2022-11-11T02:07:04;6.50;99.90
18868;DHT22;9563;49.240;9.088;2022-11-11T02:09:33;6.40;99.90
18868;DHT22;9563;49.240;9.088;2022-11-11T02:12:07;6.50;99.90
18868;DHT22;9563;49.240;9.088;2022-11-11T02:14:55;6.50;99.90
18868;DHT22;9563;49.240;9.088;2022-11-11T02:17:23;6.40;99.90
18868;DHT22;9563;49.240;9.088;2022-11-11T02:19:53;6.30;99.90
18868;DHT22;9563;49.240;9.088;2022-11-11T02:22:25;6.30;99.90
18868;DHT22;9563;49.240;9.088;2022-11-11T02:24:56;6.20;99.90
18868;DHT22;9563;49.240;9.088;2022-11-11T02:27:24;6.10;99.90
18868;DHT22;9563;49.240;9.088;2022-11-11T02:29:53;6.10;99.90
18868;DHT22;9563;49.240;9.088;2022-11-11T02:32:21;6.10;99.90
18868;DHT22;9563;49.240;9.088;2022-11-11T02:34:48;6.00;99.90
18868;DHT22;9563;49.240;9.088;2022-11-11T02:37:17;6.00;99.90
18868;DHT22;9563;49.240;9.088;2022-11-11T02:39:47;5.90;99.90
18868;DHT22;9563;49.240;9.088;2022-11-11T02:42:18;5.90;99.90
18868;DHT22;9563;49.240;9.088;2022-11-11T02:44:46;5.90;99.90
18868;DHT22;9563;49.240;9.088;2022-11-11T02:47:14;5.90;99.90
18868;DHT22;9563;49.240;9.088;2022-11-11T02:49:40;5.90;99.90
18868;DHT22;9563;49.240;9.088;2022-11-11T02:52:08;5.80;99.90
18868;DHT22;9563;49.240;9.088;2022-11-11T02:54:34;5.70;99.90
18868;DHT22;9563;49.240;9.088;2022-11-11T02:57:01;5.70;99.90
18868;DHT22;9563;49.240;9.088;2022-11-11T02:59:37;5.70;99.90
18868;DHT22;9563;49.240;9.088;2022-11-11T03:02:05;5.80;99.90
18868;DHT22;9563;49.240;9.088;2022-11-11T03:04:33;5.80;99.90
18868;DHT22;9563;49.240;9.088;2022-11-11T03:07:00;5.80;99.90
18868;DHT22;9563;49.240;9.088;2022-11-11T03:09:27;5.80;99.90
18868;DHT22;9563;49.240;9.088;2022-11-11T03:11:54;5.80;99.90
18868;DHT22;9563;49.240;9.088;2022-11-11T03:14:20;5.60;99.90
18868;DHT22;9563;49.240;9.088;2022-11-11T03:16:49;5.60;99.90
18868;DHT22;9563;49.240;9.088;2022-11-11T03:19:34;5.60;99.90
18868;DHT22;9563;49.240;9.088;2022-11-11T03:22:01;5.50;99.90
18868;DHT22;9563;49.240;9.088;2022-11-11T03:24:29;5.60;99.90
18868;DHT22;9563;49.240;9.088;2022-11-11T03:27:10;5.50;99.90
18868;DHT22;9563;49.240;9.088;2022-11-11T03:29:37;5.50;99.90
18868;DHT22;9563;49.240;9.088;2022-11-11T03:32:06;5.50;99.90
18868;DHT22;9563;49.240;9.088;2022-11-11T03:34:33;5.50;99.90
18868;DHT22;9563;49.240;9.088;2022-11-11T03:37:00;5.50;99.90
18868;DHT22;9563;49.240;9.088;2022-11-11T03:39:44;5.40;99.90
18868;DHT22;9563;49.240;9.088;2022-11-11T03:42:11;5.50;99.90
18868;DHT22;9563;49.240;9.088;2022-11-11T03:44:38;5.50;99.90
18868;DHT22;9563;49.240;9.088;2022-11-11T03:47:06;5.60;99.90
18868;DHT22;9563;49.240;9.088;2022-11-11T03:49:33;5.80;99.90
18868;DHT22;9563;49.240;9.088;2022-11-11T03:52:00;5.80;99.90
18868;DHT22;9563;49.240;9.088;2022-11-11T03:54:27;5.70;99.90
18868;DHT22;9563;49.240;9.088;2022-11-11T03:56:54;5.80;99.90
18868;DHT22;9563;49.240;9.088;2022-11-11T03:59:41;5.80;99.90
18868;DHT22;9563;49.240;9.088;2022-11-11T04:02:11;5.80;99.90
18868;DHT22;9563;49.240;9.088;2022-11-11T04:04:56;5.70;99.90
18868;DHT22;9563;49.240;9.088;2022-11-11T04:07:40;5.80;99.90
18868;DHT22;9563;49.240;9.088;2022-11-11T04:10:24;5.90;99.90
18868;DHT22;9563;49.240;9.088;2022-11-11T04:12:52;5.80;99.90
18868;DHT22;9563;49.240;9.088;2022-11-11T04:15:37;5.80;99.90
18868;DHT22;9563;49.240;9.088;2022-11-11T04:18:27;5.70;99.90
18868;DHT22;9563;49.240;9.088;2022-11-11T04:21:12;5.70;99.90
18868;DHT22;9563;49.240;9.088;2022-11-11T04:23:56;5.70;99.90
18868;DHT22;9563;49.240;9.088;2022-11-11T04:26:23;5.80;99.90
18868;DHT22;9563;49.240;9.088;2022-11-11T04:28:49;5.80;99.90
18868;DHT22;9563;49.240;9.088;2022-11-11T04:31:33;5.90;99.90
18868;DHT22;9563;49.240;9.088;2022-11-11T04:34:01;5.90;99.90
18868;DHT22;9563;49.240;9.088;2022-11-11T04:36:28;5.80;99.90
18868;DHT22;9563;49.240;9.088;2022-11-11T04:38:55;5.80;99.90
18868;DHT22;9563;49.240;9.088;2022-11-11T04:41:39;5.80;99.90
18868;DHT22;9563;49.240;9.088;2022-11-11T04:44:06;5.70;99.90
18868;DHT22;9563;49.240;9.088;2022-11-11T04:46:51;5.70;99.90
18868;DHT22;9563;49.240;9.088;2022-11-11T04:49:19;5.70;99.90
18868;DHT22;9563;49.240;9.088;2022-11-11T04:51:46;5.70;99.90
18868;DHT22;9563;49.240;9.088;2022-11-11T04:54:45;5.60;99.90
18868;DHT22;9563;49.240;9.088;2022-11-11T04:57:26;5.50;99.90
18868;DHT22;9563;49.240;9.088;2022-11-11T04:59:53;5.30;99.90
18868;DHT22;9563;49.240;9.088;2022-11-11T05:02:19;5.30;99.90
18868;DHT22;9563;49.240;9.088;2022-11-11T05:05:06;5.20;99.90
18868;DHT22;9563;49.240;9.088;2022-11-11T05:07:33;5.30;99.90
18868;DHT22;9563;49.240;9.088;2022-11-11T05:10:17;5.30;99.90
18868;DHT22;9563;49.240;9.088;2022-11-11T05:12:46;5.30;99.90
18868;DHT22;9563;49.240;9.088;2022-11-11T05:15:13;5.40;99.90
18868;DHT22;9563;49.240;9.088;2022-11-11T05:17:57;5.40;99.90
18868;DHT22;9563;49.240;9.088;2022-11-11T05:20:47;5.50;99.90
18868;DHT22;9563;49.240;9.088;2022-11-11T05:23:32;5.40;99.90
18868;DHT22;9563;49.240;9.088;2022-11-11T05:26:12;5.40;99.90
18868;DHT22;9563;49.240;9.088;2022-11-11T05:28:39;5.40;99.90
18868;DHT22;9563;49.240;9.088;2022-11-11T05:31:06;5.40;99.90
18868;DHT22;9563;49.240;9.088;2022-11-11T05:33:33;5.50;99.90
18868;DHT22;9563;49.240;9.088;2022-11-11T05:36:01;5.50;99.90
18868;DHT22;9563;49.240;9.088;2022-11-11T05:38:28;5.50;99.90
18868;DHT22;9563;49.240;9.088;2022-11-11T05:40:55;5.50;99.90
18868;DHT22;9563;49.240;9.088;2022-11-11T05:43:22;5.60;99.90
18868;DHT22;9563;49.240;9.088;2022-11-11T05:45:49;5.60;99.90
18868;DHT22;9563;49.240;9.088;2022-11-11T05:48:15;5.60;99.90
18868;DHT22;9563;49.240;9.088;2022-11-11T05:50:42;5.60;99.90
18868;DHT22;9563;49.240;9.088;2022-11-11T05:53:11;5.70;99.90
18868;DHT22;9563;49.240;9.088;2022-11-11T05:55:38;5.60;99.90
18868;DHT22;9563;49.240;9.088;2022-11-11T05:58:05;5.60;99.90
18868;DHT22;9563;49.240;9.088;2022-11-11T06:00:32;5.60;99.90
18868;DHT22;9563;49.240;9.088;2022-11-11T06:03:03;5.60;99.90
18868;DHT22;9563;49.240;9.088;2022-11-11T06:05:30;5.60;99.90
18868;DHT22;9563;49.240;9.088;2022-11-11T06:07:57;5.60;99.90
18868;DHT22;9563;49.240;9.088;2022-11-11T06:10:26;5.60;99.90
18868;DHT22;9563;49.240;9.088;2022-11-11T06:12:58;5.60;99.90
18868;DHT22;9563;49.240;9.088;2022-11-11T06:15:30;5.50;99.90
18868;DHT22;9563;49.240;9.088;2022-11-11T06:17:58;5.50;99.90
18868;DHT22;9563;49.240;9.088;2022-11-11T06:20:25;5.40;99.90
18868;DHT22;9563;49.240;9.088;2022-11-11T06:22:52;5.40;99.90
18868;DHT22;9563;49.240;9.088;2022-11-11T06:25:23;5.40;99.90
18868;DHT22;9563;49.240;9.088;2022-11-11T06:28:09;5.40;99.90
18868;DHT22;9563;49.240;9.088;2022-11-11T06:30:36;5.30;99.90
18868;DHT22;9563;49.240;9.088;2022-11-11T06:33:03;5.30;99.90
18868;DHT22;9563;49.240;9.088;2022-11-11T06:35:32;5.30;99.90
18868;DHT22;9563;49.240;9.088;2022-11-11T06:38:00;5.30;99.90
18868;DHT22;9563;49.240;9.088;2022-11-11T06:40:26;5.40;99.90
18868;DHT22;9563;49.240;9.088;2022-11-11T06:42:55;5.40;99.90
18868;DHT22;9563;49.240;9.088;2022-11-11T06:45:24;5.40;99.90
18868;DHT22;9563;49.240;9.088;2022-11-11T06:47:51;5.40;99.90
18868;DHT22;9563;49.240;9.088;2022-11-11T06:50:19;5.40;99.90
18868;DHT22;9563;49.240;9.088;2022-11-11T06:52:46;5.30;99.90
18868;DHT22;9563;49.240;9.088;2022-11-11T06:55:13;5.30;99.90
18868;DHT22;9563;49.240;9.088;2022-11-11T06:57:40;5.30;99.90
18868;DHT22;9563;49.240;9.088;2022-11-11T07:00:08;5.40;99.90
18868;DHT22;9563;49.240;9.088;2022-11-11T07:02:36;5.30;99.90
18868;DHT22;9563;49.240;9.088;2022-11-11T07:05:04;5.40;99.90
18868;DHT22;9563;49.240;9.088;2022-11-11T07:07:31;5.40;99.90
18868;DHT22;9563;49.240;9.088;2022-11-11T07:09:58;5.40;99.90
18868;DHT22;9563;49.240;9.088;2022-11-11T07:12:25;5.40;99.90
18868;DHT22;9563;49.240;9.088;2022-11-11T07:14:52;5.50;99.90
18868;DHT22;9563;49.240;9.088;2022-11-11T07:17:19;5.30;99.90
18868;DHT22;9563;49.240;9.088;2022-11-11T07:19:48;5.40;99.90
18868;DHT22;9563;49.240;9.088;2022-11-11T07:22:14;5.50;99.90
18868;DHT22;9563;49.240;9.088;2022-11-11T07:24:41;5.50;99.90
18868;DHT22;9563;49.240;9.088;2022-11-11T07:27:08;5.60;99.90
18868;DHT22;9563;49.240;9.088;2022-11-11T07:29:35;5.60;99.90
18868;DHT22;9563;49.240;9.088;2022-11-11T07:32:02;5.60;99.90
18868;DHT22;9563;49.240;9.088;2022-11-11T07:34:29;5.70;99.90
18868;DHT22;9563;49.240;9.088;2022-11-11T07:36:58;5.80;99.90
18868;DHT22;9563;49.240;9.088;2022-11-11T07:39:25;5.80;99.90
18868;DHT22;9563;49.240;9.088;2022-11-11T07:41:53;5.80;99.90
18868;DHT22;9563;49.240;9.088;2022-11-11T07:44:20;5.90;99.90
18868;DHT22;9563;49.240;9.088;2022-11-11T07:46:47;5.90;99.90
18868;DHT22;9563;49.240;9.088;2022-11-11T07:49:14;6.00;99.90
18868;DHT22;9563;49.240;9.088;2022-11-11T07:51:41;6.00;99.90
18868;DHT22;9563;49.240;9.088;2022-11-11T07:54:10;6.10;99.90
18868;DHT22;9563;49.240;9.088;2022-11-11T07:56:37;6.30;99.90
18868;DHT22;9563;49.240;9.088;2022-11-11T07:59:04;6.40;99.90
18868;DHT22;9563;49.240;9.088;2022-11-11T08:01:31;6.50;99.90
18868;DHT22;9563;49.240;9.088;2022-11-11T08:03:58;6.70;99.90
18868;DHT22;9563;49.240;9.088;2022-11-11T08:06:25;7.10;99.90
18868;DHT22;9563;49.240;9.088;2022-11-11T08:08:53;7.40;99.90
18868;DHT22;9563;49.240;9.088;2022-11-11T08:11:21;7.80;99.90
18868;DHT22;9563;49.240;9.088;2022-11-11T08:14:02;8.20;99.90
18868;DHT22;9563;49.240;9.088;2022-11-11T08:16:29;8.60;99.90
18868;DHT22;9563;49.240;9.088;2022-11-11T08:18:57;9.00;99.90
18868;DHT22;9563;49.240;9.088;2022-11-11T08:21:24;9.20;99.90
18868;DHT22;9563;49.240;9.088;2022-11-11T08:23:51;9.60;99.90
18868;DHT22;9563;49.240;9.088;2022-11-11T08:26:18;9.90;99.90
18868;DHT22;9563;49.240;9.088;2022-11-11T08:28:47;10.50;99.90
18868;DHT22;9563;49.240;9.088;2022-11-11T08:31:14;11.10;99.90
18868;DHT22;9563;49.240;9.088;2022-11-11T08:33:41;11.10;99.90
18868;DHT22;9563;49.240;9.088;2022-11-11T08:36:08;11.50;99.90
18868;DHT22;9563;49.240;9.088;2022-11-11T08:38:36;11.70;99.90
18868;DHT22;9563;49.240;9.088;2022-11-11T08:41:04;11.90;99.90
18868;DHT22;9563;49.240;9.088;2022-11-11T08:43:32;12.30;99.90
18868;DHT22;9563;49.240;9.088;2022-11-11T08:46:01;12.40;99.90
18868;DHT22;9563;49.240;9.088;2022-11-11T08:48:30;12.60;99.90
18868;DHT22;9563;49.240;9.088;2022-11-11T08:50:57;12.70;99.90
18868;DHT22;9563;49.240;9.088;2022-11-11T08:53:25;12.90;99.90
18868;DHT22;9563;49.240;9.088;2022-11-11T08:55:53;12.80;99.90
18868;DHT22;9563;49.240;9.088;2022-11-11T08:58:20;12.40;99.90
18868;DHT22;9563;49.240;9.088;2022-11-11T09:00:47;12.40;99.90
18868;DHT22;9563;49.240;9.088;2022-11-11T09:03:16;12.20;99.90
18868;DHT22;9563;49.240;9.088;2022-11-11T09:05:43;11.90;99.90
18868;DHT22;9563;49.240;9.088;2022-11-11T09:08:12;12.00;99.90
18868;DHT22;9563;49.240;9.088;2022-11-11T09:10:39;11.90;99.90
18868;DHT22;9563;49.240;9.088;2022-11-11T09:13:06;11.70;99.90
18868;DHT22;9563;49.240;9.088;2022-11-11T09:15:33;11.50;99.90
18868;DHT22;9563;49.240;9.088;2022-11-11T09:18:00;11.50;99.90
18868;DHT22;9563;49.240;9.088;2022-11-11T09:20:29;11.80;99.90
18868;DHT22;9563;49.240;9.088;2022-11-11T09:22:56;11.90;99.90
18868;DHT22;9563;49.240;9.088;2022-11-11T09:25:23;12.00;99.90
18868;DHT22;9563;49.240;9.088;2022-11-11T09:27:53;12.10;99.90
18868;DHT22;9563;49.240;9.088;2022-11-11T09:30:21;12.00;99.90
18868;DHT22;9563;49.240;9.088;2022-11-11T09:32:48;12.10;99.90
18868;DHT22;9563;49.240;9.088;2022-11-11T09:35:15;12.00;99.90
18868;DHT22;9563;49.240;9.088;2022-11-11T09:37:51;12.10;99.90
18868;DHT22;9563;49.240;9.088;2022-11-11T09:40:21;12.10;99.90
18868;DHT22;9563;49.240;9.088;2022-11-11T09:42:58;12.10;99.90
18868;DHT22;9563;49.240;9.088;2022-11-11T09:45:34;12.30;99.90
18868;DHT22;9563;49.240;9.088;2022-11-11T09:48:13;12.60;99.90
18868;DHT22;9563;49.240;9.088;2022-11-11T09:50:48;12.90;99.90
18868;DHT22;9563;49.240;9.088;2022-11-11T09:53:25;13.00;99.90
18868;DHT22;9563;49.240;9.088;2022-11-11T09:55:57;13.20;99.90
18868;DHT22;9563;49.240;9.088;2022-11-11T09:58:28;13.60;99.90
18868;DHT22;9563;49.240;9.088;2022-11-11T10:01:00;13.80;99.90
18868;DHT22;9563;49.240;9.088;2022-11-11T10:03:28;14.00;99.90
18868;DHT22;9563;49.240;9.088;2022-11-11T10:06:00;14.00;99.90
18868;DHT22;9563;49.240;9.088;2022-11-11T10:08:34;14.10;99.90
18868;DHT22;9563;49.240;9.088;2022-11-11T10:11:04;14.10;99.90
18868;DHT22;9563;49.240;9.088;2022-11-11T10:13:38;14.20;99.90
18868;DHT22;9563;49.240;9.088;2022-11-11T10:16:13;14.50;99.90
18868;DHT22;9563;49.240;9.088;2022-11-11T10:18:49;14.70;99.90
18868;DHT22;9563;49.240;9.088;2022-11-11T10:21:22;14.80;99.90
18868;DHT22;9563;49.240;9.088;2022-11-11T10:23:54;14.70;99.90
18868;DHT22;9563;49.240;9.088;2022-11-11T10:26:26;14.50;99.90
18868;DHT22;9563;49.240;9.088;2022-11-11T10:28:57;14.50;99.90
18868;DHT22;9563;49.240;9.088;2022-11-11T10:31:26;14.40;99.90
18868;DHT22;9563;49.240;9.088;2022-11-11T10:33:57;14.40;99.90
18868;DHT22;9563;49.240;9.088;2022-11-11T10:36:28;14.10;99.90
18868;DHT22;9563;49.240;9.088;2022-11-11T10:38:59;14.10;99.90
18868;DHT22;9563;49.240;9.088;2022-11-11T10:41:32;14.10;99.90
18868;DHT22;9563;49.240;9.088;2022-11-11T10:44:00;14.00;99.90
18868;DHT22;9563;49.240;9.088;2022-11-11T10:46:29;14.30;99.90
18868;DHT22;9563;49.240;9.088;2022-11-11T10:49:01;14.60;99.90
18868;DHT22;9563;49.240;9.088;2022-11-11T10:51:32;14.80;99.90
18868;DHT22;9563;49.240;9.088;2022-11-11T10:54:05;15.10;99.90
18868;DHT22;9563;49.240;9.088;2022-11-11T10:56:36;14.70;99.90
18868;DHT22;9563;49.240;9.088;2022-11-11T10:59:11;14.90;99.90
18868;DHT22;9563;49.240;9.088;2022-11-11T11:01:44;14.70;99.90
18868;DHT22;9563;49.240;9.088;2022-11-11T11:04:18;14.30;99.90
18868;DHT22;9563;49.240;9.088;2022-11-11T11:06:48;14.40;99.90
18868;DHT22;9563;49.240;9.088;2022-11-11T11:09:20;14.60;99.90
18868;DHT22;9563;49.240;9.088;2022-11-11T11:11:52;14.70;99.90
18868;DHT22;9563;49.240;9.088;2022-11-11T11:14:26;14.50;99.90
18868;DHT22;9563;49.240;9.088;2022-11-11T11:16:54;14.40;99.90
18868;DHT22;9563;49.240;9.088;2022-11-11T11:19:25;14.10;99.90
18868;DHT22;9563;49.240;9.088;2022-11-11T11:21:54;14.20;99.90
18868;DHT22;9563;49.240;9.088;2022-11-11T11:24:25;14.20;99.90
18868;DHT22;9563;49.240;9.088;2022-11-11T11:26:53;14.20;99.90
18868;DHT22;9563;49.240;9.088;2022-11-11T11:29:28;14.40;99.90
18868;DHT22;9563;49.240;9.088;2022-11-11T11:32:11;14.40;99.90
18868;DHT22;9563;49.240;9.088;2022-11-11T11:34:45;14.60;99.90
18868;DHT22;9563;49.240;9.088;2022-11-11T11:37:13;14.70;99.90
18868;DHT22;9563;49.240;9.088;2022-11-11T11:39:42;14.90;99.90
18868;DHT22;9563;49.240;9.088;2022-11-11T11:42:26;15.00;99.90
18868;DHT22;9563;49.240;9.088;2022-11-11T11:44:53;15.00;99.90
18868;DHT22;9563;49.240;9.088;2022-11-11T11:47:35;15.10;99.90
18868;DHT22;9563;49.240;9.088;2022-11-11T11:50:24;15.30;99.90
18868;DHT22;9563;49.240;9.088;2022-11-11T11:53:03;15.50;99.90
18868;DHT22;9563;49.240;9.088;2022-11-11T11:55:35;15.70;99.90
18868;DHT22;9563;49.240;9.088;2022-11-11T11:58:17;15.80;99.90
18868;DHT22;9563;49.240;9.088;2022-11-11T12:00:55;16.00;99.90
18868;DHT22;9563;49.240;9.088;2022-11-11T12:03:44;16.10;99.90
18868;DHT22;9563;49.240;9.088;2022-11-11T12:06:18;16.20;99.90
18868;DHT22;9563;49.240;9.088;2022-11-11T12:08:57;16.40;99.90
18868;DHT22;9563;49.240;9.088;2022-11-11T12:11:34;16.40;99.90
18868;DHT22;9563;49.240;9.088;2022-11-11T12:14:25;16.60;99.90
18868;DHT22;9563;49.240;9.088;2022-11-11T12:16:59;16.90;99.90
18868;DHT22;9563;49.240;9.088;2022-11-11T12:19:39;17.00;99.90
18868;DHT22;9563;49.240;9.088;2022-11-11T12:22:24;17.10;99.90
18868;DHT22;9563;49.240;9.088;2022-11-11T12:25:01;17.00;99.90
18868;DHT22;9563;49.240;9.088;2022-11-11T12:27:41;17.00;99.90
18868;DHT22;9563;49.240;9.088;2022-11-11T12:30:14;16.80;99.90
18868;DHT22;9563;49.240;9.088;2022-11-11T12:33:03;16.80;99.90
18868;DHT22;9563;49.240;9.088;2022-11-11T12:35:47;16.80;99.90
18868;DHT22;9563;49.240;9.088;2022-11-11T12:38:25;16.70;99.90
18868;DHT22;9563;49.240;9.088;2022-11-11T12:41:03;16.80;99.90
18868;DHT22;9563;49.240;9.088;2022-11-11T12:43:39;16.90;99.90
18868;DHT22;9563;49.240;9.088;2022-11-11T12:46:17;16.90;99.90
18868;DHT22;9563;49.240;9.088;2022-11-11T12:48:59;17.00;99.90
18868;DHT22;9563;49.240;9.088;2022-11-11T12:51:40;17.10;99.90
18868;DHT22;9563;49.240;9.088;2022-11-11T12:54:19;17.10;99.90
18868;DHT22;9563;49.240;9.088;2022-11-11T12:56:54;17.20;99.90
18868;DHT22;9563;49.240;9.088;2022-11-11T12:59:38;17.30;99.90
18868;DHT22;9563;49.240;9.088;2022-11-11T13:02:19;17.30;99.90
18868;DHT22;9563;49.240;9.088;2022-11-11T13:04:57;17.40;99.90
18868;DHT22;9563;49.240;9.088;2022-11-11T13:07:48;17.70;99.90
18868;DHT22;9563;49.240;9.088;2022-11-11T13:10:25;17.80;99.90
18868;DHT22;9563;49.240;9.088;2022-11-11T13:13:02;17.90;99.90
18868;DHT22;9563;49.240;9.088;2022-11-11T13:15:33;17.90;99.90
18868;DHT22;9563;49.240;9.088;2022-11-11T13:18:01;17.90;99.90
18868;DHT22;9563;49.240;9.088;2022-11-11T13:20:42;17.90;99.90
18868;DHT22;9563;49.240;9.088;2022-11-11T13:23:10;17.50;99.90
18868;DHT22;9563;49.240;9.088;2022-11-11T13:25:39;17.10;99.90
18868;DHT22;9563;49.240;9.088;2022-11-11T13:28:16;16.80;99.90
18868;DHT22;9563;49.240;9.088;2022-11-11T13:30:50;16.10;99.90
18868;DHT22;9563;49.240;9.088;2022-11-11T13:33:20;15.90;99.90
18868;DHT22;9563;49.240;9.088;2022-11-11T13:35:52;15.70;99.90
18868;DHT22;9563;49.240;9.088;2022-11-11T13:38:29;15.50;99.90
18868;DHT22;9563;49.240;9.088;2022-11-11T13:41:00;15.40;99.90
18868;DHT22;9563;49.240;9.088;2022-11-11T13:43:30;15.20;99.90
18868;DHT22;9563;49.240;9.088;2022-11-11T13:46:01;15.10;99.90
18868;DHT22;9563;49.240;9.088;2022-11-11T13:48:32;15.00;99.90
18868;DHT22;9563;49.240;9.088;2022-11-11T13:51:18;15.00;99.90
18868;DHT22;9563;49.240;9.088;2022-11-11T13:53:46;15.00;99.90
18868;DHT22;9563;49.240;9.088;2022-11-11T13:56:22;14.80;99.90
18868;DHT22;9563;49.240;9.088;2022-11-11T13:58:50;14.70;99.90
18868;DHT22;9563;49.240;9.088;2022-11-11T14:01:20;14.60;99.90
18868;DHT22;9563;49.240;9.088;2022-11-11T14:03:58;14.40;99.90
18868;DHT22;9563;49.240;9.088;2022-11-11T14:06:36;14.10;99.90
18868;DHT22;9563;49.240;9.088;2022-11-11T14:09:04;14.00;99.90
18868;DHT22;9563;49.240;9.088;2022-11-11T14:11:33;13.90;99.90
18868;DHT22;9563;49.240;9.088;2022-11-11T14:17:04;13.50;99.90
18868;DHT22;9563;49.240;9.088;2022-11-11T14:19:32;13.50;99.90
18868;DHT22;9563;49.240;9.088;2022-11-11T14:22:00;13.50;99.90
18868;DHT22;9563;49.240;9.088;2022-11-11T14:24:35;13.40;99.90
18868;DHT22;9563;49.240;9.088;2022-11-11T14:27:13;13.30;99.90
18868;DHT22;9563;49.240;9.088;2022-11-11T14:29:48;13.30;99.90
18868;DHT22;9563;49.240;9.088;2022-11-11T14:32:39;13.30;99.90
18868;DHT22;9563;49.240;9.088;2022-11-11T14:35:24;13.20;99.90
18868;DHT22;9563;49.240;9.088;2022-11-11T14:38:14;13.10;99.90
18868;DHT22;9563;49.240;9.088;2022-11-11T14:40:44;13.10;99.90
18868;DHT22;9563;49.240;9.088;2022-11-11T14:43:34;13.10;99.90
18868;DHT22;9563;49.240;9.088;2022-11-11T14:46:06;13.00;99.90
18868;DHT22;9563;49.240;9.088;2022-11-11T14:49:06;13.00;99.90
18868;DHT22;9563;49.240;9.088;2022-11-11T14:51:46;13.00;99.90
18868;DHT22;9563;49.240;9.088;2022-11-11T14:54:21;12.90;99.90
18868;DHT22;9563;49.240;9.088;2022-11-11T14:56:58;12.90;99.90
18868;DHT22;9563;49.240;9.088;2022-11-11T14:59:28;12.80;99.90
18868;DHT22;9563;49.240;9.088;2022-11-11T15:01:57;12.70;99.90
18868;DHT22;9563;49.240;9.088;2022-11-11T15:04:26;12.70;99.90
18868;DHT22;9563;49.240;9.088;2022-11-11T15:07:02;12.60;99.90
18868;DHT22;9563;49.240;9.088;2022-11-11T15:09:42;12.50;99.90
18868;DHT22;9563;49.240;9.088;2022-11-11T15:12:18;12.40;99.90
18868;DHT22;9563;49.240;9.088;2022-11-11T15:14:52;12.30;99.90
18868;DHT22;9563;49.240;9.088;2022-11-11T15:17:31;12.30;99.90
18868;DHT22;9563;49.240;9.088;2022-11-11T15:20:24;12.30;99.90
18868;DHT22;9563;49.240;9.088;2022-11-11T15:22:58;12.30;99.90
18868;DHT22;9563;49.240;9.088;2022-11-11T15:25:39;12.20;99.90
18868;DHT22;9563;49.240;9.088;2022-11-11T15:28:22;12.10;99.90
18868;DHT22;9563;49.240;9.088;2022-11-11T15:31:01;12.10;99.90
18868;DHT22;9563;49.240;9.088;2022-11-11T15:33:42;12.00;99.90
18868;DHT22;9563;49.240;9.088;2022-11-11T15:36:30;11.90;99.90
18868;DHT22;9563;49.240;9.088;2022-11-11T15:39:03;11.80;99.90
18868;DHT22;9563;49.240;9.088;2022-11-11T15:41:35;11.70;99.90
18868;DHT22;9563;49.240;9.088;2022-11-11T15:44:08;11.60;99.90
18868;DHT22;9563;49.240;9.088;2022-11-11T15:46:40;11.50;99.90
18868;DHT22;9563;49.240;9.088;2022-11-11T15:49:12;11.40;99.90
18868;DHT22;9563;49.240;9.088;2022-11-11T15:51:41;11.20;99.90
18868;DHT22;9563;49.240;9.088;2022-11-11T15:54:13;11.00;99.90
18868;DHT22;9563;49.240;9.088;2022-11-11T15:56:42;10.90;99.90
18868;DHT22;9563;49.240;9.088;2022-11-11T15:59:16;10.80;99.90
18868;DHT22;9563;49.240;9.088;2022-11-11T16:01:43;10.60;99.90
18868;DHT22;9563;49.240;9.088;2022-11-11T16:04:16;10.40;99.90
18868;DHT22;9563;49.240;9.088;2022-11-11T16:06:45;10.20;99.90
18868;DHT22;9563;49.240;9.088;2022-11-11T16:09:15;10.20;99.90
18868;DHT22;9563;49.240;9.088;2022-11-11T16:11:44;10.10;99.90
18868;DHT22;9563;49.240;9.088;2022-11-11T16:14:20;10.20;99.90
18868;DHT22;9563;49.240;9.088;2022-11-11T16:16:53;10.10;99.90
18868;DHT22;9563;49.240;9.088;2022-11-11T16:19:28;10.00;99.90
18868;DHT22;9563;49.240;9.088;2022-11-11T16:22:02;9.90;99.90
18868;DHT22;9563;49.240;9.088;2022-11-11T16:24:32;9.80;99.90
18868;DHT22;9563;49.240;9.088;2022-11-11T16:27:01;9.70;99.90
18868;DHT22;9563;49.240;9.088;2022-11-11T16:29:33;9.60;99.90
18868;DHT22;9563;49.240;9.088;2022-11-11T16:32:00;9.60;99.90